createdAt,value
2023-01-01T00:00:42.971Z,59.91
2023-01-01T00:03:10.881Z,56.35
2023-01-01T00:05:40.075Z,49.01
2023-01-01T00:08:08.096Z,47.04
2023-01-01T00:10:37.653Z,45.65
2023-01-01T00:13:05.631Z,35.98
2023-01-01T00:15:34.741Z,32.05
2023-01-01T00:18:02.613Z,27.05
2023-01-01T00:20:35.171Z,24.95
2023-01-01T00:23:03.925Z,22.31
2023-01-01T00:25:32.544Z,21.33
2023-01-01T00:28:02.548Z,20.66
2023-01-01T00:30:30.410Z,19.79
2023-01-01T00:32:58.730Z,20.32
2023-01-01T00:35:27.259Z,19.41
2023-01-01T00:37:56.800Z,16.15
2023-01-01T00:40:24.804Z,14.83
2023-01-01T00:42:52.679Z,13.27
2023-01-01T00:45:23.002Z,12.60
2023-01-01T00:47:53.098Z,11.28
2023-01-01T00:50:21.858Z,11.15
2023-01-01T00:52:50.700Z,10.36
2023-01-01T00:55:19.050Z,8.41
2023-01-01T00:57:46.967Z,7.95
2023-01-01T01:00:16.183Z,7.71
2023-01-01T01:02:45.657Z,8.32
2023-01-01T01:05:13.615Z,8.47
2023-01-01T01:07:41.981Z,8.90
2023-01-01T01:10:12.188Z,9.82
2023-01-01T01:12:40.702Z,9.40
2023-01-01T01:15:10.692Z,9.65
2023-01-01T01:17:38.569Z,9.21
2023-01-01T01:20:09.887Z,9.73
2023-01-01T01:22:38.343Z,9.96
2023-01-01T01:25:07.851Z,9.59
2023-01-01T01:27:35.720Z,9.55
2023-01-01T01:30:03.604Z,10.42
2023-01-01T01:32:31.505Z,9.57
2023-01-01T01:34:59.432Z,8.72
2023-01-01T01:37:28.659Z,8.85
2023-01-01T01:39:56.515Z,9.21
2023-01-01T01:42:24.440Z,9.19
2023-01-01T01:44:56.236Z,8.92
2023-01-01T01:47:31.171Z,8.81
2023-01-01T01:50:07.464Z,9.20
2023-01-01T01:52:44.779Z,10.11
2023-01-01T01:55:15.010Z,9.35
2023-01-01T01:57:43.491Z,8.73
2023-01-01T02:00:13.139Z,8.54
2023-01-01T02:02:52.864Z,8.42
2023-01-01T02:05:23.477Z,7.84
2023-01-01T02:07:54.823Z,7.36
2023-01-01T02:10:23.335Z,7.33
2023-01-01T02:12:51.632Z,7.79
2023-01-01T02:15:20.579Z,7.73
2023-01-01T02:18:00.056Z,8.25
2023-01-01T02:20:41.879Z,8.73
2023-01-01T02:23:46.195Z,8.67
2023-01-01T02:26:41.078Z,8.10
2023-01-01T02:29:29.999Z,8.68
2023-01-01T02:32:04.270Z,8.38
2023-01-01T02:34:40.417Z,8.40
2023-01-01T02:37:13.240Z,8.33
2023-01-01T02:39:51.752Z,8.59
2023-01-01T02:42:30.765Z,9.10
2023-01-01T02:45:02.212Z,9.45
2023-01-01T02:47:30.070Z,9.86
2023-01-01T02:50:06.859Z,9.83
2023-01-01T02:52:58.105Z,11.21
2023-01-01T02:55:38.449Z,12.79
2023-01-01T02:58:35.897Z,14.51
2023-01-01T03:01:18.556Z,15.67
2023-01-01T03:03:59.258Z,16.16
2023-01-01T03:06:36.480Z,16.22
2023-01-01T03:09:17.206Z,17.22
2023-01-01T03:11:57.650Z,17.32
2023-01-01T03:14:38.672Z,16.91
2023-01-01T03:17:17.966Z,17.29
2023-01-01T03:19:50.399Z,17.20
2023-01-01T03:22:22.745Z,17.38
2023-01-01T03:24:57.843Z,17.48
2023-01-01T03:27:33.292Z,16.83
2023-01-01T03:30:08.236Z,17.40
2023-01-01T03:33:00.003Z,18.07
2023-01-01T03:35:35.320Z,17.14
2023-01-01T03:38:10.281Z,17.15
2023-01-01T03:40:40.942Z,17.91
2023-01-01T03:43:15.056Z,18.64
2023-01-01T03:45:48.985Z,17.84
2023-01-01T03:48:18.494Z,18.30
2023-01-01T03:51:00.052Z,18.60
2023-01-01T03:53:40.055Z,18.87
2023-01-01T03:56:19.419Z,18.40
2023-01-01T03:58:57.577Z,18.57
2023-01-01T04:01:32.538Z,18.11
2023-01-01T04:04:04.513Z,18.00
2023-01-01T04:06:34.330Z,18.50
2023-01-01T04:09:05.400Z,18.28
2023-01-01T04:11:54.036Z,18.08
2023-01-01T04:14:29.348Z,17.95
2023-01-01T04:16:57.520Z,17.83
2023-01-01T04:19:27.805Z,17.30
2023-01-01T04:21:55.692Z,17.19
2023-01-01T04:24:24.170Z,16.21
2023-01-01T04:26:52.603Z,16.06
2023-01-01T04:29:21.546Z,16.99
2023-01-01T04:31:49.988Z,15.66
2023-01-01T04:34:18.335Z,16.50
2023-01-01T04:36:48.136Z,15.89
2023-01-01T04:39:16.054Z,16.04
2023-01-01T04:41:43.914Z,16.48
2023-01-01T04:44:11.776Z,16.12
2023-01-01T04:46:40.224Z,16.00
2023-01-01T04:49:08.474Z,16.51
2023-01-01T04:51:39.816Z,16.31
2023-01-01T04:54:09.379Z,15.96
2023-01-01T04:56:37.363Z,15.58
2023-01-01T04:59:05.731Z,15.95
2023-01-01T05:01:36.527Z,14.96
2023-01-01T05:04:05.098Z,15.35
2023-01-01T05:06:33.181Z,15.46
2023-01-01T05:09:03.989Z,15.02
2023-01-01T05:11:33.545Z,15.60
2023-01-01T05:14:03.600Z,15.47
2023-01-01T05:16:34.544Z,17.84
2023-01-01T05:19:02.773Z,17.97
2023-01-01T05:21:33.123Z,17.18
2023-01-01T05:24:02.949Z,15.88
2023-01-01T05:26:34.902Z,15.06
2023-01-01T05:29:03.700Z,15.85
2023-01-01T05:31:34.785Z,15.06
2023-01-01T05:36:33.981Z,15.42
2023-01-01T05:39:01.935Z,14.92
2023-01-01T05:41:31.157Z,14.38
2023-01-01T05:44:02.446Z,13.67
2023-01-01T05:46:30.340Z,14.11
2023-01-01T05:48:58.204Z,13.06
2023-01-01T05:51:28.755Z,12.81
2023-01-01T05:53:58.177Z,12.99
2023-01-01T05:56:27.193Z,13.00
2023-01-01T05:58:55.328Z,12.74
2023-01-01T06:01:27.635Z,12.55
2023-01-01T06:03:57.607Z,12.97
2023-01-01T06:06:28.747Z,11.72
2023-01-01T06:08:59.137Z,11.98
2023-01-01T06:11:27.269Z,11.92
2023-01-01T06:13:57.678Z,11.73
2023-01-01T06:16:28.840Z,11.69
2023-01-01T06:18:57.356Z,11.29
2023-01-01T06:21:27.265Z,11.06
2023-01-01T06:23:56.919Z,11.26
2023-01-01T06:26:26.792Z,10.97
2023-01-01T06:28:58.171Z,10.20
2023-01-01T06:31:31.183Z,10.13
2023-01-01T06:34:02.686Z,9.40
2023-01-01T06:36:30.978Z,9.57
2023-01-01T06:39:00.387Z,9.09
2023-01-01T06:41:31.108Z,9.09
2023-01-01T06:44:01.956Z,9.09
2023-01-01T06:46:33.619Z,8.79
2023-01-01T06:49:04.683Z,9.22
2023-01-01T06:51:34.647Z,8.69
2023-01-01T06:54:04.859Z,8.42
2023-01-01T06:56:33.473Z,8.41
2023-01-01T06:59:02.044Z,8.39
2023-01-01T07:01:34.000Z,8.56
2023-01-01T07:04:05.036Z,8.07
2023-01-01T07:06:35.341Z,7.83
2023-01-01T07:09:03.425Z,7.51
2023-01-01T07:11:33.073Z,8.31
2023-01-01T07:14:01.216Z,8.30
2023-01-01T07:16:29.879Z,9.51
2023-01-01T07:18:59.166Z,9.86
2023-01-01T07:21:30.868Z,9.51
2023-01-01T07:24:00.528Z,9.45
2023-01-01T07:26:30.469Z,9.52
2023-01-01T07:29:06.320Z,9.79
2023-01-01T07:31:35.929Z,9.36
2023-01-01T07:34:05.766Z,9.19
2023-01-01T07:36:33.697Z,9.28
2023-01-01T07:39:01.687Z,9.59
2023-01-01T07:41:29.559Z,10.05
2023-01-01T07:43:57.425Z,10.12
2023-01-01T07:46:25.457Z,10.37
2023-01-01T07:48:53.466Z,10.09
2023-01-01T07:51:23.608Z,9.46
2023-01-01T07:53:51.637Z,10.04
2023-01-01T07:56:19.957Z,10.13
2023-01-01T07:58:47.864Z,10.06
2023-01-01T08:01:16.191Z,9.41
2023-01-01T08:03:44.511Z,9.85
2023-01-01T08:06:14.844Z,9.45
2023-01-01T08:08:44.097Z,9.72
2023-01-01T08:11:12.358Z,9.08
2023-01-01T08:13:40.260Z,9.93
2023-01-01T08:16:08.909Z,9.42
2023-01-01T08:18:36.989Z,9.63
2023-01-01T08:21:06.396Z,9.70
2023-01-01T08:23:34.291Z,10.28
2023-01-01T08:26:05.130Z,11.00
2023-01-01T08:28:33.237Z,10.87
2023-01-01T08:31:01.726Z,10.68
2023-01-01T08:33:29.629Z,11.07
2023-01-01T08:35:57.732Z,11.70
2023-01-01T08:38:26.137Z,12.54
2023-01-01T08:40:54.535Z,12.27
2023-01-01T08:43:23.835Z,10.76
2023-01-01T08:45:52.191Z,11.32
2023-01-01T08:48:23.106Z,11.55
2023-01-01T08:50:54.807Z,11.63
2023-01-01T08:53:23.048Z,11.12
2023-01-01T08:55:57.988Z,11.02
2023-01-01T08:58:27.705Z,10.58
2023-01-01T09:00:55.707Z,10.41
2023-01-01T09:03:24.267Z,10.33
2023-01-01T09:05:53.139Z,10.02
2023-01-01T09:08:21.581Z,9.87
2023-01-01T09:10:50.171Z,9.56
2023-01-01T09:13:20.736Z,10.32
2023-01-01T09:15:50.855Z,10.71
2023-01-01T09:18:19.137Z,10.78
2023-01-01T09:20:47.152Z,10.95
2023-01-01T09:26:04.140Z,8.98
2023-01-01T09:28:32.026Z,9.44
2023-01-01T09:31:02.266Z,9.50
2023-01-01T09:33:30.251Z,9.39
2023-01-01T09:36:13.724Z,9.83
2023-01-01T09:38:41.617Z,9.94
2023-01-01T09:41:22.868Z,9.88
2023-01-01T09:44:04.554Z,9.32
2023-01-01T09:46:34.678Z,9.62
2023-01-01T09:49:08.114Z,9.60
2023-01-01T09:51:45.221Z,9.82
2023-01-01T09:54:28.820Z,9.77
2023-01-01T09:57:01.197Z,9.71
2023-01-01T09:59:29.488Z,9.28
2023-01-01T10:02:11.827Z,9.05
2023-01-01T10:04:58.513Z,9.14
2023-01-01T10:07:37.745Z,9.14
2023-01-01T10:10:21.428Z,8.80
2023-01-01T10:13:01.351Z,9.05
2023-01-01T10:15:35.373Z,8.84
2023-01-01T10:18:15.120Z,8.94
2023-01-01T10:20:49.467Z,9.19
2023-01-01T10:23:23.279Z,10.73
2023-01-01T10:25:51.541Z,9.28
2023-01-01T10:28:28.060Z,9.35
2023-01-01T10:31:12.071Z,8.74
2023-01-01T10:33:41.820Z,9.15
2023-01-01T10:36:15.132Z,9.13
2023-01-01T10:38:43.677Z,8.80
2023-01-01T10:41:19.535Z,9.07
2023-01-01T10:43:50.015Z,9.28
2023-01-01T10:46:29.512Z,9.53
2023-01-01T10:49:12.302Z,8.64
2023-01-01T10:51:46.103Z,9.17
2023-01-01T10:54:32.907Z,9.81
2023-01-01T10:57:13.961Z,8.86
2023-01-01T10:59:49.901Z,8.72
2023-01-01T11:02:24.293Z,8.47
2023-01-01T11:05:19.289Z,9.01
2023-01-01T11:07:49.855Z,7.92
2023-01-01T11:10:21.220Z,8.92
2023-01-01T11:13:08.152Z,9.98
2023-01-01T11:15:42.923Z,8.31
2023-01-01T11:18:16.134Z,8.48
2023-01-01T11:20:45.988Z,8.30
2023-01-01T11:23:28.926Z,7.55
2023-01-01T11:26:19.387Z,7.45
2023-01-01T11:29:02.273Z,7.55
2023-01-01T11:31:37.147Z,7.64
2023-01-01T11:34:16.526Z,8.19
2023-01-01T11:36:46.153Z,8.12
2023-01-01T11:39:23.701Z,8.00
2023-01-01T11:41:54.321Z,8.16
2023-01-01T11:44:35.510Z,8.32
2023-01-01T11:47:05.966Z,8.38
2023-01-01T11:49:34.847Z,8.15
2023-01-01T11:52:29.987Z,8.21
2023-01-01T11:55:11.516Z,8.52
2023-01-01T11:57:47.547Z,8.38
2023-01-01T12:00:17.959Z,7.97
2023-01-01T12:02:54.316Z,7.41
2023-01-01T12:05:27.687Z,9.27
2023-01-01T12:08:04.289Z,10.14
2023-01-01T12:10:46.683Z,10.12
2023-01-01T12:13:23.127Z,7.85
2023-01-01T12:16:03.800Z,7.30
2023-01-01T12:18:42.249Z,7.36
2023-01-01T12:21:18.761Z,7.49
2023-01-01T12:23:48.532Z,7.59
2023-01-01T12:26:25.517Z,7.17
2023-01-01T12:29:20.501Z,6.73
2023-01-01T12:32:02.609Z,6.75
2023-01-01T12:34:42.626Z,6.61
2023-01-01T12:37:25.420Z,6.58
2023-01-01T12:40:29.665Z,6.65
2023-01-01T12:43:03.958Z,6.49
2023-01-01T12:45:56.678Z,6.40
2023-01-01T12:48:59.158Z,6.06
2023-01-01T12:51:37.826Z,5.94
2023-01-01T12:54:50.048Z,5.74
2023-01-01T12:57:30.127Z,5.69
2023-01-01T13:00:04.408Z,5.29
2023-01-01T13:02:39.290Z,5.48
2023-01-01T13:05:20.177Z,5.08
2023-01-01T13:07:53.637Z,5.06
2023-01-01T13:10:28.966Z,4.90
2023-01-01T13:12:58.007Z,5.93
2023-01-01T13:15:49.516Z,5.70
2023-01-01T13:18:24.732Z,6.33
2023-01-01T13:20:59.515Z,6.47
2023-01-01T13:23:54.050Z,5.05
2023-01-01T13:26:38.652Z,5.17
2023-01-01T13:29:44.551Z,4.95
2023-01-01T13:32:15.448Z,4.89
2023-01-01T13:35:01.662Z,4.75
2023-01-01T13:37:44.977Z,4.79
2023-01-01T13:40:46.565Z,4.47
2023-01-01T13:43:32.448Z,4.42
2023-01-01T13:46:13.827Z,4.53
2023-01-01T13:49:14.621Z,4.58
2023-01-01T13:52:24.761Z,4.32
2023-01-01T13:55:36.042Z,4.15
2023-01-01T13:58:32.621Z,4.35
2023-01-01T14:01:36.273Z,4.70
2023-01-01T14:04:15.898Z,4.31
2023-01-01T14:06:51.923Z,4.53
2023-01-01T14:09:22.663Z,4.81
2023-01-01T14:11:50.639Z,5.24
2023-01-01T14:14:28.650Z,5.14
2023-01-01T14:17:00.168Z,4.27
2023-01-01T14:19:30.612Z,4.47
2023-01-01T14:21:58.939Z,4.14
2023-01-01T14:24:29.098Z,4.09
2023-01-01T14:26:57.630Z,4.39
2023-01-01T14:29:30.032Z,4.94
2023-01-01T14:32:02.248Z,4.65
2023-01-01T14:34:34.983Z,4.66
2023-01-01T14:37:05.808Z,3.83
2023-01-01T14:39:35.625Z,3.41
2023-01-01T14:42:07.881Z,3.60
2023-01-01T14:44:42.519Z,3.71
2023-01-01T14:47:25.030Z,3.75
2023-01-01T14:50:01.037Z,3.75
2023-01-01T14:52:31.332Z,3.90
2023-01-01T14:55:01.719Z,3.74
2023-01-01T14:57:34.144Z,3.56
2023-01-01T15:00:02.222Z,3.64
2023-01-01T15:02:33.672Z,3.56
2023-01-01T15:05:34.797Z,3.70
2023-01-01T15:08:05.524Z,3.60
2023-01-01T15:10:37.060Z,3.83
2023-01-01T15:13:09.467Z,3.91
2023-01-01T15:15:42.149Z,4.04
2023-01-01T15:18:37.714Z,4.06
2023-01-01T15:21:14.458Z,4.68
2023-01-01T15:23:53.690Z,4.16
2023-01-01T15:26:30.658Z,4.32
2023-01-01T15:29:00.963Z,4.25
2023-01-01T15:31:38.706Z,4.22
2023-01-01T15:34:07.404Z,4.20
2023-01-01T15:36:36.719Z,4.15
2023-01-01T15:39:04.829Z,4.34
2023-01-01T15:41:44.156Z,4.01
2023-01-01T15:44:22.453Z,5.51
2023-01-01T15:46:53.129Z,6.54
2023-01-01T15:49:26.926Z,5.49
2023-01-01T15:52:00.562Z,5.98
2023-01-01T15:54:29.210Z,5.87
2023-01-01T15:56:58.142Z,5.49
2023-01-01T15:59:34.462Z,5.78
2023-01-01T16:02:13.545Z,5.57
2023-01-01T16:04:47.377Z,4.87
2023-01-01T16:07:25.498Z,4.69
2023-01-01T16:09:58.174Z,4.32
2023-01-01T16:12:27.167Z,3.68
2023-01-01T16:14:54.981Z,3.45
2023-01-01T16:17:25.703Z,3.63
2023-01-01T16:19:54.910Z,3.40
2023-01-01T16:22:24.631Z,3.81
2023-01-01T16:24:58.524Z,3.94
2023-01-01T16:27:26.414Z,4.05
2023-01-01T16:29:55.059Z,3.95
2023-01-01T16:32:23.525Z,4.14
2023-01-01T16:34:51.896Z,4.16
2023-01-01T16:37:24.255Z,4.60
2023-01-01T16:39:52.220Z,4.77
2023-01-01T16:42:23.553Z,4.75
2023-01-01T16:44:51.736Z,4.88
2023-01-01T16:47:23.086Z,5.22
2023-01-01T16:49:50.940Z,5.59
2023-01-01T16:52:18.891Z,5.56
2023-01-01T16:54:48.135Z,4.98
2023-01-01T16:57:16.472Z,4.89
2023-01-01T16:59:44.357Z,4.99
2023-01-01T17:02:12.351Z,5.33
2023-01-01T17:04:40.281Z,5.35
2023-01-01T17:07:08.186Z,5.87
2023-01-01T17:09:40.035Z,6.11
2023-01-01T17:12:09.747Z,6.97
2023-01-01T17:14:38.115Z,7.33
2023-01-01T17:17:06.013Z,7.57
2023-01-01T17:19:33.916Z,7.30
2023-01-01T17:22:04.496Z,7.24
2023-01-01T17:24:33.331Z,7.12
2023-01-01T17:27:01.189Z,6.72
2023-01-01T17:29:30.589Z,7.35
2023-01-01T17:31:58.486Z,7.24
2023-01-01T17:34:27.036Z,7.34
2023-01-01T17:36:54.887Z,7.82
2023-01-01T17:39:22.789Z,8.27
2023-01-01T17:41:50.748Z,8.23
2023-01-01T17:44:18.811Z,8.41
2023-01-01T17:46:48.083Z,8.06
2023-01-01T17:49:16.056Z,8.22
2023-01-01T17:51:43.946Z,8.45
2023-01-01T17:54:13.781Z,8.78
2023-01-01T17:56:44.608Z,8.22
2023-01-01T17:59:12.716Z,8.86
2023-01-01T18:01:40.708Z,8.68
2023-01-01T18:04:10.573Z,8.74
2023-01-01T18:06:43.038Z,8.17
2023-01-01T18:09:14.440Z,8.52
2023-01-01T18:11:43.341Z,8.89
2023-01-01T18:14:13.173Z,8.70
2023-01-01T18:16:43.316Z,8.95
2023-01-01T18:19:15.354Z,8.55
2023-01-01T18:21:43.911Z,8.14
2023-01-01T18:24:14.869Z,8.52
2023-01-01T18:26:43.499Z,8.13
2023-01-01T18:29:11.817Z,8.14
2023-01-01T18:31:39.934Z,7.66
2023-01-01T18:34:08.292Z,7.58
2023-01-01T18:36:37.521Z,8.50
2023-01-01T18:39:16.106Z,8.14
2023-01-01T18:42:05.742Z,7.68
2023-01-01T18:44:35.418Z,8.11
2023-01-01T18:47:14.712Z,7.90
2023-01-01T18:49:49.943Z,8.04
2023-01-01T18:52:27.221Z,7.88
2023-01-01T18:55:08.294Z,8.09
2023-01-01T18:57:37.799Z,7.49
2023-01-01T19:00:18.328Z,7.12
2023-01-01T19:02:52.807Z,7.42
2023-01-01T19:05:24.740Z,6.75
2023-01-01T19:08:00.814Z,6.89
2023-01-01T19:10:36.492Z,7.25
2023-01-01T19:13:17.047Z,6.95
2023-01-01T19:15:47.995Z,7.26
2023-01-01T19:18:18.435Z,7.69
2023-01-01T19:20:47.249Z,7.66
2023-01-01T19:23:23.663Z,8.00
2023-01-01T19:25:53.626Z,7.86
2023-01-01T19:28:35.359Z,7.76
2023-01-01T19:31:05.344Z,8.45
2023-01-01T19:33:33.578Z,8.10
2023-01-01T19:36:01.622Z,8.28
2023-01-01T19:38:31.127Z,8.01
2023-01-01T19:40:59.417Z,7.91
2023-01-01T19:43:27.656Z,7.77
2023-01-01T19:45:55.679Z,7.76
2023-01-01T19:48:23.915Z,7.58
2023-01-01T19:50:52.257Z,7.28
2023-01-01T19:53:20.225Z,7.17
2023-01-01T19:55:49.515Z,7.56
2023-01-01T19:58:19.787Z,7.56
2023-01-01T20:00:48.007Z,7.46
2023-01-01T20:06:04.272Z,7.77
2023-01-01T20:08:32.781Z,7.68
2023-01-01T20:11:03.524Z,7.47
2023-01-01T20:13:31.766Z,7.08
2023-01-01T20:15:59.788Z,6.91
2023-01-01T20:18:27.730Z,6.46
2023-01-01T20:21:13.379Z,6.35
2023-01-01T20:23:41.266Z,6.34
2023-01-01T20:26:10.986Z,5.86
2023-01-01T20:28:56.183Z,5.82
2023-01-01T20:31:24.171Z,6.35
2023-01-01T20:33:52.132Z,5.84
2023-01-01T20:36:37.396Z,5.43
2023-01-01T20:39:05.344Z,5.34
2023-01-01T20:41:34.626Z,5.42
2023-01-01T20:44:02.559Z,5.30
2023-01-01T20:46:31.018Z,5.47
2023-01-01T20:49:00.245Z,5.69
2023-01-01T20:51:28.353Z,5.60
2023-01-01T20:53:56.323Z,5.43
2023-01-01T20:56:24.304Z,5.39
2023-01-01T20:59:00.159Z,5.19
2023-01-01T21:01:30.558Z,5.10
2023-01-01T21:03:58.603Z,5.00
2023-01-01T21:06:28.699Z,5.37
2023-01-01T21:08:57.084Z,5.29
2023-01-01T21:11:24.966Z,5.13
2023-01-01T21:13:54.299Z,4.89
2023-01-01T21:16:28.961Z,5.05
2023-01-01T21:18:58.373Z,4.96
2023-01-01T21:21:30.470Z,5.08
2023-01-01T21:24:03.522Z,5.41
2023-01-01T21:26:38.053Z,5.16
2023-01-01T21:29:14.645Z,4.89
2023-01-01T21:31:44.264Z,4.71
2023-01-01T21:34:35.588Z,4.67
2023-01-01T21:37:15.305Z,4.68
2023-01-01T21:39:43.578Z,4.65
2023-01-01T21:42:24.964Z,4.76
2023-01-01T21:44:58.828Z,4.45
2023-01-01T21:47:27.663Z,4.67
2023-01-01T21:49:58.088Z,5.05
2023-01-01T21:52:26.440Z,4.97
2023-01-01T21:54:56.130Z,5.07
2023-01-01T21:57:26.093Z,4.91
2023-01-01T21:59:55.365Z,5.28
2023-01-01T22:02:41.149Z,4.85
2023-01-01T22:05:30.098Z,4.73
2023-01-01T22:07:59.511Z,4.75
2023-01-01T22:10:35.448Z,5.00
2023-01-01T22:13:04.467Z,4.69
2023-01-01T22:15:40.764Z,4.80
2023-01-01T22:18:27.046Z,4.56
2023-01-01T22:20:55.402Z,4.52
2023-01-01T22:23:36.718Z,4.08
2023-01-01T22:26:13.743Z,4.32
2023-01-01T22:31:36.753Z,4.17
2023-01-01T22:34:06.633Z,4.13
2023-01-01T22:36:36.854Z,4.14
2023-01-01T22:39:14.671Z,4.08
2023-01-01T22:41:43.538Z,4.37
2023-01-01T22:44:13.409Z,4.67
2023-01-01T22:46:43.355Z,4.47
2023-01-01T22:49:22.720Z,4.20
2023-01-01T22:51:54.808Z,4.24
2023-01-01T22:54:22.870Z,4.60
2023-01-01T22:56:50.807Z,4.20
2023-01-01T22:59:18.646Z,4.39
2023-01-01T23:01:48.011Z,4.91
2023-01-01T23:04:17.020Z,4.64
2023-01-01T23:06:45.130Z,5.19
2023-01-01T23:09:14.116Z,5.34
2023-01-01T23:11:42.388Z,5.45
2023-01-01T23:14:28.485Z,5.37
2023-01-01T23:16:57.898Z,5.70
2023-01-01T23:19:25.800Z,5.88
2023-01-01T23:21:54.512Z,5.73
2023-01-01T23:24:25.521Z,5.77
2023-01-01T23:26:54.393Z,5.92
2023-01-01T23:29:25.416Z,5.84
2023-01-01T23:31:53.585Z,5.85
2023-01-01T23:34:23.036Z,6.15
2023-01-01T23:36:54.689Z,5.82
2023-01-01T23:39:22.921Z,6.71
2023-01-01T23:41:51.599Z,6.46
2023-01-01T23:44:19.561Z,5.98
2023-01-01T23:46:48.159Z,5.98
2023-01-01T23:49:16.707Z,5.86
2023-01-01T23:51:46.192Z,6.19
2023-01-01T23:54:14.597Z,6.11
2023-01-01T23:56:42.472Z,5.59
2023-01-01T23:59:11.927Z,5.57
